Time;durP1;ratioP1;P1;durP2;ratioP2;P2;SDS_P1;SDS_P2;PMS_P1;PMS_P2;Temp;Humidity;BMP_temperature;BMP_pressure;BME280_temperature;BME280_humidity;BME280_pressure;Samples;Min_cycle;Max_cycle;Signal;HPM_P1;HPM_P2
2021/12/31 00:00:58;;;;;;;5.82;3.08;;;;;;;13.11;100.00;101664.22;10541223;28;20054;-61
2021/12/31 00:06:01;;;;;;;8.23;4.75;;;;;;;12.89;100.00;101667.13;10541235;28;20369;-60
2021/12/31 00:11:03;;;;;;;5.03;3.47;;;;;;;13.03;100.00;101658.53;10540715;28;20483;-61
2021/12/31 00:16:06;;;;;;;6.30;3.42;;;;;;;12.91;100.00;101648.66;10541070;28;20055;-60
2021/12/31 00:21:08;;;;;;;10.02;3.53;;;;;;;13.03;100.00;101645.38;10540633;28;20403;-61
2021/12/31 00:26:10;;;;;;;8.35;3.22;;;;;;;13.01;100.00;101644.59;10540429;28;20502;-60
2021/12/31 00:31:13;;;;;;;3.00;2.40;;;;;;;13.18;100.00;101641.06;10540367;28;20495;-60
2021/12/31 00:36:15;;;;;;;7.53;2.90;;;;;;;12.97;100.00;101648.34;10540006;28;20051;-61
2021/12/31 00:41:17;;;;;;;5.57;2.22;;;;;;;12.93;100.00;101654.69;10539227;28;20048;-60
2021/12/31 00:46:20;;;;;;;7.05;3.25;;;;;;;13.14;100.00;101644.78;10539486;28;20044;-60
2021/12/31 00:51:23;;;;;;;7.85;3.53;;;;;;;13.07;100.00;101646.06;10539942;28;20056;-60
2021/12/31 00:56:25;;;;;;;7.47;2.92;;;;;;;12.96;100.00;101662.41;10540280;28;20047;-60
2021/12/31 01:01:30;;;;;;;6.72;2.70;;;;;;;13.10;100.00;101662.50;10539717;28;20052;-60
2021/12/31 01:06:33;;;;;;;7.18;2.72;;;;;;;13.11;100.00;101672.09;10539924;28;20051;-60
2021/12/31 01:11:35;;;;;;;5.78;2.40;;;;;;;13.11;100.00;101669.47;10539243;28;20480;-60
2021/12/31 01:16:39;;;;;;;8.15;2.35;;;;;;;13.09;100.00;101681.00;10539282;28;20412;-61
2021/12/31 01:21:41;;;;;;;7.82;2.28;;;;;;;12.99;100.00;101675.38;10539361;28;20044;-60
2021/12/31 01:26:43;;;;;;;3.75;2.35;;;;;;;12.94;100.00;101670.34;10539225;28;20041;-60
2021/12/31 01:31:46;;;;;;;5.10;2.17;;;;;;;13.09;100.00;101671.31;10538997;28;20052;-60
2021/12/31 01:36:48;;;;;;;4.25;2.15;;;;;;;13.18;100.00;101680.50;10539121;28;20048;-59
2021/12/31 01:41:50;;;;;;;4.75;2.20;;;;;;;13.05;100.00;101663.72;10539023;28;20048;-60
2021/12/31 01:47:01;;;;;;;6.63;2.08;;;;;;;13.06;100.00;101676.72;10539211;28;20051;-60
2021/12/31 01:52:05;;;;;;;5.03;2.10;;;;;;;13.26;100.00;101669.56;10537807;28;20048;-60
2021/12/31 01:57:09;;;;;;;6.13;2.55;;;;;;;13.10;100.00;101682.72;10542719;28;20052;-60
2021/12/31 02:02:12;;;;;;;4.43;2.05;;;;;;;13.00;100.00;101687.59;10545097;28;20381;-60
2021/12/31 02:07:15;;;;;;;4.95;2.08;;;;;;;12.98;100.00;101694.72;10546574;28;20381;-60
2021/12/31 02:12:17;;;;;;;4.13;2.80;;;;;;;13.04;100.00;101698.78;10546026;28;20047;-61
2021/12/31 02:17:20;;;;;;;3.83;2.13;;;;;;;12.98;100.00;101699.97;10544621;28;20047;-60
2021/12/31 02:22:27;;;;;;;6.32;2.55;;;;;;;13.11;100.00;101690.50;10545775;28;20048;-60
2021/12/31 02:27:29;;;;;;;3.97;2.15;;;;;;;12.99;100.00;101678.88;10545579;28;20090;-60
2021/12/31 02:32:31;;;;;;;4.97;2.85;;;;;;;13.07;100.00;101683.72;10544815;28;20054;-60
2021/12/31 02:37:34;;;;;;;4.22;2.00;;;;;;;12.93;100.00;101688.88;10544982;28;20388;-60
2021/12/31 02:42:36;;;;;;;8.95;1.90;;;;;;;13.03;100.00;101676.94;10544409;28;20048;-60
2021/12/31 02:47:44;;;;;;;8.45;2.10;;;;;;;13.13;100.00;101672.88;10544394;28;20050;-60
2021/12/31 02:52:47;;;;;;;5.22;1.90;;;;;;;13.07;100.00;101673.19;10544749;28;20081;-60
2021/12/31 02:57:49;;;;;;;6.72;2.13;;;;;;;13.08;100.00;101676.66;10544372;28;20048;-60
2021/12/31 03:02:53;;;;;;;4.35;1.83;;;;;;;13.11;100.00;101680.00;10543620;28;20484;-60
2021/12/31 03:07:56;;;;;;;6.20;1.90;;;;;;;13.04;100.00;101677.75;10543395;28;20047;-60
2021/12/31 03:12:59;;;;;;;2.60;1.83;;;;;;;13.02;100.00;101665.53;10541838;28;20511;-60
2021/12/31 03:18:03;;;;;;;3.08;2.00;;;;;;;13.13;100.00;101662.34;10543012;28;20048;-61
2021/12/31 03:23:06;;;;;;;11.10;1.90;;;;;;;13.08;100.00;101656.50;10541679;28;20396;-60
2021/12/31 03:28:08;;;;;;;4.97;1.92;;;;;;;13.14;100.00;101657.94;10541823;28;20047;-60
2021/12/31 03:33:10;;;;;;;4.60;1.90;;;;;;;12.97;100.00;101662.31;10542573;28;20119;-60
2021/12/31 03:38:13;;;;;;;7.30;2.35;;;;;;;12.98;100.00;101657.94;10543368;28;20048;-60
2021/12/31 03:43:15;;;;;;;5.35;2.13;;;;;;;13.16;100.00;101658.69;10542059;28;20045;-60
2021/12/31 03:48:18;;;;;;;5.88;1.98;;;;;;;12.94;100.00;101653.75;10541994;28;20048;-60
2021/12/31 03:53:21;;;;;;;9.10;2.58;;;;;;;12.89;100.00;101645.25;10541957;28;20044;-60
2021/12/31 03:58:23;;;;;;;2.13;1.85;;;;;;;12.83;100.00;101643.81;10541657;28;20538;-60
2021/12/31 04:03:26;;;;;;;4.93;3.05;;;;;;;12.68;100.00;101642.00;10541589;28;20488;-61
2021/12/31 04:08:28;;;;;;;5.65;2.63;;;;;;;12.66;100.00;101635.97;10541299;28;20051;-60
2021/12/31 04:13:30;;;;;;;6.28;2.75;;;;;;;12.63;100.00;101632.59;10541470;28;20056;-60
2021/12/31 04:18:33;;;;;;;4.68;2.50;;;;;;;12.79;100.00;101637.88;10540397;28;20070;-61
2021/12/31 04:23:47;;;;;;;6.75;2.55;;;;;;;12.79;100.00;101637.88;10540341;28;20396;-60
2021/12/31 04:28:49;;;;;;;4.15;2.25;;;;;;;12.62;100.00;101625.66;10540737;28;20048;-60
2021/12/31 04:33:52;;;;;;;4.18;2.30;;;;;;;12.54;100.00;101638.34;10539135;28;20506;-60
2021/12/31 04:38:54;;;;;;;7.30;2.78;;;;;;;12.72;100.00;101625.97;10540213;28;20048;-60
2021/12/31 04:43:57;;;;;;;5.97;2.67;;;;;;;12.46;100.00;101619.50;10540255;28;20048;-60
2021/12/31 04:49:00;;;;;;;8.27;2.80;;;;;;;12.71;100.00;101619.06;10540134;28;20044;-60
2021/12/31 04:54:02;;;;;;;5.00;2.95;;;;;;;12.60;100.00;101610.88;10539933;28;20059;-60
2021/12/31 04:59:05;;;;;;;4.95;2.30;;;;;;;12.49;100.00;101626.34;10539836;28;20055;-60
2021/12/31 05:04:07;;;;;;;4.57;2.97;;;;;;;12.52;100.00;101621.78;10539861;28;20075;-60
2021/12/31 05:09:10;;;;;;;7.95;3.10;;;;;;;12.59;100.00;101624.94;10539822;28;20044;-60
2021/12/31 05:14:13;;;;;;;4.93;2.25;;;;;;;12.63;100.00;101623.84;10539826;28;20496;-60
2021/12/31 05:19:15;;;;;;;8.77;3.03;;;;;;;12.48;100.00;101622.88;10539443;28;20051;-61
2021/12/31 05:24:17;;;;;;;5.93;3.05;;;;;;;12.55;100.00;101624.25;10539261;28;20070;-61
2021/12/31 05:29:20;;;;;;;8.57;3.30;;;;;;;12.42;100.00;101615.31;10539552;28;20044;-60
2021/12/31 05:34:22;;;;;;;6.90;2.78;;;;;;;12.55;100.00;101605.03;10546911;28;20052;-61
2021/12/31 05:39:25;;;;;;;4.45;2.45;;;;;;;12.57;100.00;101590.88;10546422;28;20071;-60
2021/12/31 05:44:27;;;;;;;7.93;3.22;;;;;;;12.48;100.00;101580.03;10546992;28;20055;-61
2021/12/31 05:49:30;;;;;;;6.03;3.05;;;;;;;12.52;100.00;101577.13;10547721;28;20044;-60
2021/12/31 05:54:32;;;;;;;5.25;2.63;;;;;;;12.48;100.00;101572.13;10547486;28;20079;-60
2021/12/31 05:59:35;;;;;;;5.65;2.72;;;;;;;12.39;100.00;101566.44;10546570;28;20051;-60
2021/12/31 06:04:37;;;;;;;4.00;2.65;;;;;;;12.41;100.00;101580.34;10546780;28;20051;-59
2021/12/31 06:09:44;;;;;;;6.25;2.70;;;;;;;12.56;100.00;101583.94;10546362;28;20044;-60
2021/12/31 06:14:46;;;;;;;6.53;2.70;;;;;;;12.37;100.00;101591.06;10545952;28;20048;-59
2021/12/31 06:19:48;;;;;;;14.60;4.00;;;;;;;12.36;100.00;101589.41;10545732;28;20052;-60
2021/12/31 06:24:51;;;;;;;8.68;2.95;;;;;;;12.33;100.00;101590.38;10545454;28;20055;-60
2021/12/31 06:29:58;;;;;;;5.95;2.53;;;;;;;12.40;100.00;101607.50;10545827;28;20079;-60
2021/12/31 06:35:01;;;;;;;7.85;2.67;;;;;;;12.41;100.00;101597.88;10545039;28;20052;-60
2021/12/31 06:40:06;;;;;;;6.57;3.00;;;;;;;12.34;100.00;101581.59;10545248;28;20055;-60
2021/12/31 06:45:09;;;;;;;6.18;2.17;;;;;;;12.22;100.00;101584.84;10543397;28;20488;-64
2021/12/31 06:50:11;;;;;;;6.28;2.17;;;;;;;12.22;100.00;101598.84;10544427;28;20071;-60
2021/12/31 06:55:14;;;;;;;5.70;2.20;;;;;;;12.13;100.00;101598.44;10544694;28;20059;-59
2021/12/31 07:00:17;;;;;;;3.00;1.92;;;;;;;12.18;100.00;101605.16;10543261;28;20052;-60
2021/12/31 07:05:20;;;;;;;2.72;2.30;;;;;;;12.06;100.00;101592.66;10542361;28;20488;-59
2021/12/31 07:10:22;;;;;;;7.00;2.30;;;;;;;11.89;100.00;101603.97;10543696;28;20051;-60
2021/12/31 07:15:25;;;;;;;5.25;2.08;;;;;;;11.97;100.00;101594.00;10543361;28;20055;-59
2021/12/31 07:20:27;;;;;;;9.80;2.70;;;;;;;11.95;100.00;101584.47;10543258;28;20109;-60
2021/12/31 07:25:30;;;;;;;4.50;2.72;;;;;;;11.85;100.00;101584.06;10543049;28;20051;-58
2021/12/31 07:30:33;;;;;;;4.10;2.30;;;;;;;11.74;100.00;101565.41;10543147;28;20492;-60
2021/12/31 07:35:35;;;;;;;7.70;2.55;;;;;;;11.87;100.00;101572.56;10542215;28;20453;-60
2021/12/31 07:40:39;;;;;;;7.95;2.97;;;;;;;11.76;100.00;101582.75;10542779;28;20048;-60
2021/12/31 07:45:42;;;;;;;4.97;2.40;;;;;;;11.65;100.00;101578.03;10542147;28;20484;-60
2021/12/31 07:50:45;;;;;;;4.88;2.85;;;;;;;11.66;100.00;101589.38;10541919;28;20107;-59
2021/12/31 07:55:47;;;;;;;3.95;2.60;;;;;;;11.47;100.00;101592.06;10541817;28;20407;-60
2021/12/31 08:00:50;;;;;;;5.65;2.90;;;;;;;11.52;100.00;101598.78;10541757;28;20052;-59
2021/12/31 08:05:52;;;;;;;4.20;3.00;;;;;;;11.56;100.00;101615.19;10541838;28;20480;-59
2021/12/31 08:10:55;;;;;;;6.57;2.63;;;;;;;11.55;100.00;101621.38;10541645;28;20496;-60
2021/12/31 08:15:58;;;;;;;8.10;2.95;;;;;;;11.46;100.00;101613.94;10541209;28;20056;-58
2021/12/31 08:21:00;;;;;;;6.55;3.00;;;;;;;11.46;100.00;101627.06;10540725;28;20051;-58
2021/12/31 08:26:05;;;;;;;4.28;3.00;;;;;;;11.48;100.00;101619.97;10540582;28;20492;-59
2021/12/31 08:31:07;;;;;;;8.48;3.10;;;;;;;11.54;100.00;101609.19;10540415;28;20438;-58
2021/12/31 08:36:09;;;;;;;3.35;2.60;;;;;;;11.47;100.00;101607.78;10540337;28;20059;-58
2021/12/31 08:41:12;;;;;;;6.47;2.80;;;;;;;11.62;100.00;101624.56;10540260;28;20047;-58
2021/12/31 08:46:36;;;;;;;5.20;2.78;;;;;;;11.59;100.00;101627.31;10539935;28;20105;-58
2021/12/31 08:51:38;;;;;;;9.30;3.58;;;;;;;11.71;100.00;101627.56;10540106;28;20048;-59
2021/12/31 08:56:43;;;;;;;4.65;2.83;;;;;;;11.66;100.00;101626.94;10540030;28;20048;-59
2021/12/31 09:01:51;;;;;;;6.15;3.05;;;;;;;11.73;100.00;101616.16;10540078;28;20056;-58
2021/12/31 09:06:53;;;;;;;4.18;2.70;;;;;;;11.66;100.00;101620.84;10546600;28;20101;-58
2021/12/31 09:11:56;;;;;;;7.80;3.08;;;;;;;11.79;100.00;101614.09;10553194;28;20484;-59
2021/12/31 09:17:00;;;;;;;4.32;3.05;;;;;;;11.79;100.00;101606.22;10553393;28;20066;-58
2021/12/31 09:22:04;;;;;;;4.82;2.65;;;;;;;11.71;100.00;101597.88;10553142;28;20127;-59
2021/12/31 09:27:06;;;;;;;2.53;2.30;;;;;;;11.76;100.00;101605.53;10553626;28;20048;-58
2021/12/31 09:32:09;;;;;;;6.90;3.00;;;;;;;11.90;100.00;101618.78;10553163;28;20105;-59
2021/12/31 09:37:12;;;;;;;4.75;2.65;;;;;;;11.89;100.00;101627.59;10553191;28;20426;-59
2021/12/31 09:42:14;;;;;;;5.45;2.30;;;;;;;12.02;100.00;101609.47;10552796;28;20499;-58
2021/12/31 09:47:18;;;;;;;5.45;2.20;;;;;;;12.20;99.84;101599.81;10553357;28;20051;-59
2021/12/31 09:52:21;;;;;;;2.30;2.10;;;;;;;12.02;100.00;101614.72;10552863;28;20058;-58
2021/12/31 09:57:23;;;;;;;2.33;2.10;;;;;;;12.12;100.00;101641.38;10552558;28;20055;-58
2021/12/31 10:02:33;;;;;;;4.82;2.47;;;;;;;12.21;100.00;101664.53;10552515;28;20048;-58
2021/12/31 10:07:42;;;;;;;3.40;2.22;;;;;;;12.19;100.00;101656.75;10552619;28;20050;-59
2021/12/31 10:12:59;;;;;;;3.00;2.13;;;;;;;12.27;99.59;101670.34;10552514;28;20499;-58
2021/12/31 10:18:12;;;;;;;4.57;2.50;;;;;;;12.32;100.00;101653.47;10549284;28;20405;-60
2021/12/31 10:23:16;;;;;;;4.30;2.55;;;;;;;12.06;100.00;101669.63;10546394;28;20135;-58
2021/12/31 10:28:18;;;;;;;5.30;2.60;;;;;;;12.09;99.69;101637.13;10545231;28;20051;-59
2021/12/31 10:33:42;;;;;;;4.85;1.90;;;;;;;12.15;99.65;101618.44;10545187;28;20051;-59
2021/12/31 10:38:44;;;;;;;5.88;2.45;;;;;;;12.07;100.00;101639.00;10545023;28;20055;-60
2021/12/31 10:43:59;;;;;;;6.07;2.30;;;;;;;12.18;100.00;101634.03;10543637;28;20048;-59
2021/12/31 10:49:07;;;;;;;3.33;2.40;;;;;;;12.23;100.00;101608.38;10544542;28;20049;-58
2021/12/31 10:54:44;;;;;;;2.88;2.03;;;;;;;12.52;99.06;101613.06;10544698;28;20130;-59
2021/12/31 10:59:47;;;;;;;5.65;2.75;;;;;;;12.34;98.54;101604.34;10544726;28;20101;-60
2021/12/31 11:04:51;;;;;;;5.40;2.47;;;;;;;12.47;98.03;101602.78;10543881;28;20071;-58
2021/12/31 11:09:54;;;;;;;6.05;2.33;;;;;;;12.54;99.05;101619.94;10543808;28;20040;-60
2021/12/31 11:14:56;;;;;;;4.28;2.70;;;;;;;12.44;98.69;101626.63;10542427;28;20488;-59
2021/12/31 11:20:00;;;;;;;3.13;2.80;;;;;;;12.40;98.50;101583.88;10543390;28;20063;-58
2021/12/31 11:25:24;;;;;;;3.08;2.78;;;;;;;12.35;99.94;101583.28;10542965;28;20404;-59
2021/12/31 11:30:40;;;;;;;6.35;3.50;;;;;;;12.44;98.73;101582.81;10542353;28;20052;-59
2021/12/31 11:35:46;;;;;;;4.03;2.95;;;;;;;12.45;97.98;101552.13;10542910;28;20434;-60
2021/12/31 11:41:08;;;;;;;5.32;2.60;;;;;;;12.71;99.33;101532.34;10542607;28;20047;-60
2021/12/31 11:46:10;;;;;;;5.03;2.38;;;;;;;12.91;96.94;101523.38;10542138;28;20047;-60
2021/12/31 11:51:18;;;;;;;3.95;2.45;;;;;;;13.10;95.06;101543.38;10542045;28;20071;-59
2021/12/31 11:56:45;;;;;;;4.60;2.70;;;;;;;12.67;98.41;101550.97;10542452;28;20052;-58
2021/12/31 12:01:51;;;;;;;2.40;2.20;;;;;;;12.79;97.90;101543.28;10541517;28;20574;-59
2021/12/31 12:07:13;;;;;;;4.78;2.28;;;;;;;12.89;97.24;101543.59;10542048;28;20043;-59
2021/12/31 12:12:28;;;;;;;5.88;2.78;;;;;;;12.94;95.45;101540.72;10541034;28;20483;-60
2021/12/31 12:17:31;;;;;;;4.20;2.35;;;;;;;12.81;97.81;101537.94;10541421;28;20052;-59
2021/12/31 12:22:50;;;;;;;3.38;2.72;;;;;;;12.71;100.00;101556.00;10541214;28;20047;-60
2021/12/31 12:28:06;;;;;;;5.57;3.25;;;;;;;12.64;100.00;101557.22;10541113;28;20511;-58
2021/12/31 12:38:18;;;;;;;3.92;3.15;;;;;;;12.62;100.00;101562.59;10540419;28;20055;-58
2021/12/31 12:43:35;;;;;;;3.78;2.88;;;;;;;12.57;100.00;101548.84;10539841;28;20059;-59
2021/12/31 12:48:39;;;;;;;5.47;3.03;;;;;;;12.45;100.00;101560.84;10540595;28;20130;-60
2021/12/31 12:53:43;;;;;;;4.78;2.83;;;;;;;12.47;100.00;101549.41;10540012;28;20510;-59
2021/12/31 12:58:51;;;;;;;5.80;2.90;;;;;;;12.59;100.00;101554.88;10539027;28;20415;-60
2021/12/31 13:03:54;;;;;;;5.20;3.15;;;;;;;12.65;100.00;101558.94;10539367;28;20055;-59
2021/12/31 13:09:15;;;;;;;5.72;3.17;;;;;;;12.84;99.01;101582.44;10538320;28;20442;-60
2021/12/31 13:14:19;;;;;;;8.20;3.03;;;;;;;12.70;100.00;101588.44;10539952;28;20075;-59
2021/12/31 13:19:34;;;;;;;8.15;2.78;;;;;;;12.82;99.21;101603.53;10539464;28;20396;-59
2021/12/31 13:24:38;;;;;;;6.47;3.10;;;;;;;12.89;99.21;101611.94;10538862;28;20048;-59
2021/12/31 13:29:42;;;;;;;5.35;2.92;;;;;;;12.96;97.80;101608.06;10539361;28;20040;-60
2021/12/31 13:34:49;;;;;;;4.95;2.80;;;;;;;13.08;97.42;101621.44;10538056;28;20044;-59
2021/12/31 13:40:11;;;;;;;5.05;2.85;;;;;;;13.09;96.36;101639.78;10539076;28;20050;-60
2021/12/31 13:45:24;;;;;;;5.50;2.67;;;;;;;12.87;99.22;101650.59;10538828;28;20484;-59
2021/12/31 13:50:31;;;;;;;7.05;3.33;;;;;;;12.93;97.24;101647.66;10538953;28;20051;-59
2021/12/31 13:55:35;;;;;;;5.82;2.97;;;;;;;12.92;98.74;101658.25;10546851;28;20052;-60
2021/12/31 14:00:40;;;;;;;5.20;3.45;;;;;;;12.90;98.99;101653.06;10546698;28;20052;-59
2021/12/31 14:05:52;;;;;;;3.97;2.72;;;;;;;12.87;100.00;101669.00;10546563;28;20044;-59
2021/12/31 14:10:54;;;;;;;6.57;3.53;;;;;;;12.81;99.95;101651.78;10546191;28;20040;-59
2021/12/31 14:15:57;;;;;;;9.88;3.38;;;;;;;12.88;100.00;101652.31;10545647;28;20051;-60
2021/12/31 14:20:59;;;;;;;4.97;3.22;;;;;;;12.89;100.00;101651.34;10545815;28;20044;-59
2021/12/31 14:26:04;;;;;;;7.88;3.38;;;;;;;12.80;100.00;101671.09;10545877;28;20048;-59
2021/12/31 14:31:08;;;;;;;6.43;3.42;;;;;;;12.84;100.00;101666.53;10545562;28;20059;-60
2021/12/31 14:36:12;;;;;;;8.23;4.05;;;;;;;12.83;100.00;101686.72;10545164;28;20044;-59
2021/12/31 14:41:21;;;;;;;11.10;4.40;;;;;;;12.89;100.00;101685.53;10545060;28;20044;-59
2021/12/31 14:46:26;;;;;;;8.90;4.82;;;;;;;12.79;100.00;101698.31;10544885;28;20047;-60
2021/12/31 14:51:28;;;;;;;9.60;5.35;;;;;;;12.75;100.00;101685.41;10544616;28;20495;-60
2021/12/31 14:56:32;;;;;;;14.50;5.90;;;;;;;12.76;100.00;101695.84;10543221;28;20056;-59
2021/12/31 15:01:37;;;;;;;8.95;5.97;;;;;;;12.74;100.00;101704.72;10544855;28;20040;-59
2021/12/31 15:06:40;;;;;;;17.70;7.35;;;;;;;12.73;100.00;101726.69;10542979;28;20514;-59
2021/12/31 15:11:42;;;;;;;9.93;6.28;;;;;;;12.61;100.00;101752.66;10542555;28;20055;-59
2021/12/31 15:16:45;;;;;;;13.35;7.35;;;;;;;12.47;100.00;101746.41;10543593;28;20056;-60
2021/12/31 15:21:47;;;;;;;16.15;8.45;;;;;;;12.41;100.00;101743.16;10543376;28;20044;-60
2021/12/31 15:26:54;;;;;;;9.10;6.40;;;;;;;12.36;100.00;101757.47;10542970;28;20044;-59
2021/12/31 15:31:57;;;;;;;12.52;8.80;;;;;;;12.39;100.00;101749.41;10542559;28;20048;-59
2021/12/31 15:36:59;;;;;;;11.77;7.35;;;;;;;12.31;100.00;101752.44;10542458;28;20518;-60
2021/12/31 15:42:02;;;;;;;9.63;6.63;;;;;;;12.34;100.00;101741.78;10542869;28;20051;-60
2021/12/31 15:47:05;;;;;;;10.63;6.80;;;;;;;12.36;100.00;101755.66;10541158;28;20052;-60
2021/12/31 15:52:07;;;;;;;16.13;7.40;;;;;;;12.23;100.00;101747.53;10541943;28;20575;-59
2021/12/31 15:57:10;;;;;;;12.43;6.53;;;;;;;12.18;100.00;101730.31;10541816;28;20044;-59
2021/12/31 16:02:12;;;;;;;8.95;6.65;;;;;;;12.23;100.00;101730.94;10541328;28;20051;-60
2021/12/31 16:07:15;;;;;;;11.05;6.30;;;;;;;12.19;100.00;101739.91;10541780;28;20092;-59
2021/12/31 16:12:17;;;;;;;16.98;8.15;;;;;;;12.16;100.00;101755.81;10541163;28;20079;-60
2021/12/31 16:17:41;;;;;;;9.25;7.32;;;;;;;12.24;100.00;101757.13;10541060;28;20051;-60
2021/12/31 16:22:44;;;;;;;9.32;7.85;;;;;;;12.19;100.00;101758.28;10541161;28;20055;-59
2021/12/31 16:27:49;;;;;;;18.05;9.70;;;;;;;12.11;100.00;101765.69;10541012;28;20071;-59
2021/12/31 16:32:51;;;;;;;13.80;8.60;;;;;;;12.03;100.00;101772.13;10540432;28;20055;-60
2021/12/31 16:37:53;;;;;;;13.02;8.70;;;;;;;12.08;100.00;101779.78;10540385;28;20488;-59
2021/12/31 16:42:56;;;;;;;15.13;8.52;;;;;;;12.06;100.00;101787.75;10539099;28;20059;-59
2021/12/31 16:47:58;;;;;;;15.85;8.82;;;;;;;12.13;100.00;101803.22;10540976;28;20040;-59
2021/12/31 16:53:00;;;;;;;12.48;8.10;;;;;;;12.06;100.00;101800.03;10539925;28;20059;-59
2021/12/31 16:58:02;;;;;;;9.63;7.35;;;;;;;11.99;100.00;101811.75;10539994;28;20050;-60
2021/12/31 17:03:05;;;;;;;15.75;8.35;;;;;;;12.07;100.00;101820.13;10539551;28;20052;-59
2021/12/31 17:08:08;;;;;;;19.23;8.90;;;;;;;12.04;100.00;101836.84;10540400;28;20083;-59
2021/12/31 17:13:12;;;;;;;10.60;7.18;;;;;;;12.07;100.00;101836.69;10539256;28;20055;-60
2021/12/31 17:18:15;;;;;;;13.63;8.02;;;;;;;12.14;100.00;101849.50;10538497;28;20066;-60
2021/12/31 17:23:17;;;;;;;17.25;10.07;;;;;;;12.09;100.00;101868.13;10538945;28;20051;-60
2021/12/31 17:28:20;;;;;;;14.73;9.63;;;;;;;12.07;100.00;101876.06;10542922;28;20051;-60
2021/12/31 17:33:22;;;;;;;13.32;8.77;;;;;;;12.02;100.00;101879.81;10548207;28;20044;-60
2021/12/31 17:38:25;;;;;;;17.38;9.02;;;;;;;12.13;100.00;101895.94;10547467;28;20054;-59
2021/12/31 17:43:27;;;;;;;13.68;10.70;;;;;;;11.93;100.00;101894.22;10545708;28;20040;-59
2021/12/31 17:48:30;;;;;;;17.42;11.48;;;;;;;11.96;100.00;101901.13;10547095;28;20126;-60
2021/12/31 17:53:32;;;;;;;15.18;10.07;;;;;;;12.02;100.00;101898.19;10546817;28;20051;-59
2021/12/31 17:58:34;;;;;;;18.20;10.77;;;;;;;12.00;100.00;101900.03;10546927;28;20423;-59
2021/12/31 18:03:38;;;;;;;17.77;10.65;;;;;;;12.04;100.00;101910.34;10546158;28;20048;-59
2021/12/31 18:08:40;;;;;;;13.52;9.48;;;;;;;12.07;100.00;101915.44;10546173;28;20051;-61
2021/12/31 18:13:45;;;;;;;16.55;9.90;;;;;;;12.02;100.00;101927.94;10546204;28;20060;-60
2021/12/31 18:18:47;;;;;;;21.88;12.32;;;;;;;12.01;100.00;101941.13;10545762;28;20048;-60
2021/12/31 18:23:49;;;;;;;16.65;12.05;;;;;;;12.12;100.00;101956.38;10545369;28;20396;-60
2021/12/31 18:28:52;;;;;;;21.35;13.20;;;;;;;12.06;100.00;101960.97;10545498;28;20508;-59
2021/12/31 18:33:54;;;;;;;19.38;15.00;;;;;;;12.00;100.00;101966.53;10544210;28;20419;-60
2021/12/31 18:38:58;;;;;;;18.90;15.15;;;;;;;12.06;100.00;101974.09;10543656;28;20047;-60
2021/12/31 18:44:00;;;;;;;23.95;15.18;;;;;;;12.05;100.00;101980.31;10544601;28;20040;-60
2021/12/31 18:49:06;;;;;;;21.85;17.25;;;;;;;12.09;100.00;101994.13;10544333;28;20044;-60
2021/12/31 18:54:08;;;;;;;20.63;15.35;;;;;;;12.04;100.00;101999.59;10544610;28;20051;-59
2021/12/31 18:59:10;;;;;;;21.80;16.33;;;;;;;12.05;100.00;102014.41;10544779;28;20055;-60
2021/12/31 19:04:13;;;;;;;25.85;18.45;;;;;;;12.14;100.00;102005.28;10544117;28;20059;-60
2021/12/31 19:09:15;;;;;;;30.73;18.20;;;;;;;12.12;100.00;102007.13;10544271;28;20048;-59
2021/12/31 19:14:17;;;;;;;19.02;14.93;;;;;;;12.19;100.00;102005.09;10543572;28;20063;-59
2021/12/31 19:19:19;;;;;;;26.02;18.60;;;;;;;12.17;100.00;102017.41;10542430;28;20411;-59
2021/12/31 19:24:22;;;;;;;22.48;17.83;;;;;;;12.19;100.00;102024.31;10543069;28;20044;-59
2021/12/31 19:29:26;;;;;;;24.70;18.38;;;;;;;12.41;100.00;102039.09;10543576;28;20048;-60
2021/12/31 19:34:28;;;;;;;27.13;20.10;;;;;;;12.16;100.00;102037.56;10543006;28;20052;-59
2021/12/31 19:39:31;;;;;;;26.15;17.70;;;;;;;12.24;100.00;102037.22;10543219;28;20083;-60
2021/12/31 19:44:33;;;;;;;25.85;18.00;;;;;;;12.14;100.00;102042.03;10541279;28;20044;-60
2021/12/31 19:49:36;;;;;;;30.88;20.13;;;;;;;12.17;100.00;102046.28;10542381;28;20048;-60
2021/12/31 19:54:38;;;;;;;22.20;16.60;;;;;;;12.24;100.00;102053.00;10542054;28;20415;-59
2021/12/31 19:59:40;;;;;;;27.02;16.63;;;;;;;12.26;100.00;102062.47;10540668;28;20407;-59
2021/12/31 20:04:43;;;;;;;25.50;19.20;;;;;;;12.20;100.00;102062.75;10541720;28;20052;-60
2021/12/31 20:09:45;;;;;;;21.17;16.35;;;;;;;12.21;100.00;102069.72;10541621;28;20067;-60
2021/12/31 20:14:47;;;;;;;24.13;18.23;;;;;;;12.25;100.00;102062.56;10541870;28;20052;-60
2021/12/31 20:19:50;;;;;;;23.50;15.55;;;;;;;12.20;100.00;102075.03;10541328;28;20044;-59
2021/12/31 20:24:53;;;;;;;24.63;16.27;;;;;;;12.30;100.00;102071.06;10541096;28;20052;-60
2021/12/31 20:29:55;;;;;;;23.05;16.08;;;;;;;12.33;100.00;102077.97;10540737;28;20491;-60
2021/12/31 20:34:58;;;;;;;19.02;14.13;;;;;;;12.40;100.00;102077.63;10540507;28;20048;-59
2021/12/31 20:40:00;;;;;;;25.20;14.93;;;;;;;12.36;100.00;102083.09;10540392;28;20412;-59
2021/12/31 20:45:05;;;;;;;24.48;14.50;;;;;;;12.28;100.00;102086.06;10540038;28;20476;-59
2021/12/31 20:50:09;;;;;;;19.25;13.18;;;;;;;12.32;100.00;102100.75;10539414;28;20130;-60
2021/12/31 20:55:12;;;;;;;21.08;11.73;;;;;;;12.41;100.00;102091.63;10540038;28;20508;-59
2021/12/31 21:00:15;;;;;;;19.13;10.57;;;;;;;12.41;100.00;102100.34;10539751;28;20048;-60
2021/12/31 21:05:17;;;;;;;21.02;13.07;;;;;;;12.43;100.00;102095.88;10539490;28;20052;-60
2021/12/31 21:10:19;;;;;;;22.00;12.05;;;;;;;12.44;100.00;102097.59;10539738;28;20055;-60
2021/12/31 21:15:21;;;;;;;18.08;10.25;;;;;;;12.42;100.00;102103.81;10539692;28;20055;-60
2021/12/31 21:20:25;;;;;;;21.33;10.68;;;;;;;12.47;100.00;102116.75;10539353;28;20173;-60
2021/12/31 21:25:30;;;;;;;15.63;10.27;;;;;;;12.42;100.00;102124.84;10539483;28;20048;-60
2021/12/31 21:30:32;;;;;;;17.58;10.02;;;;;;;12.46;100.00;102121.16;10539486;28;20052;-59
2021/12/31 21:35:37;;;;;;;21.38;11.23;;;;;;;12.42;100.00;102123.09;10539094;28;20496;-59
2021/12/31 21:40:39;;;;;;;17.17;10.05;;;;;;;12.43;100.00;102135.28;10537838;28;20044;-59
2021/12/31 21:45:46;;;;;;;19.05;10.07;;;;;;;12.44;100.00;102138.78;10538875;28;20431;-59
2021/12/31 21:50:48;;;;;;;22.17;9.85;;;;;;;12.41;100.00;102146.78;10538942;28;20097;-59
2021/12/31 21:55:51;;;;;;;24.10;10.18;;;;;;;12.43;100.00;102158.06;10539534;28;20048;-60
2021/12/31 22:00:53;;;;;;;27.15;10.93;;;;;;;12.44;100.00;102165.03;10538780;28;20051;-59
2021/12/31 22:05:56;;;;;;;22.25;11.27;;;;;;;12.40;100.00;102166.91;10538750;28;20054;-59
2021/12/31 22:10:58;;;;;;;25.25;11.10;;;;;;;12.39;100.00;102165.22;10538613;28;20491;-60
2021/12/31 22:16:01;;;;;;;21.83;9.93;;;;;;;12.41;100.00;102159.91;10545127;28;20059;-59
2021/12/31 22:21:03;;;;;;;23.55;10.20;;;;;;;12.34;100.00;102158.44;10545923;28;20476;-59
2021/12/31 22:26:06;;;;;;;21.75;10.52;;;;;;;12.36;100.00;102169.78;10546119;28;20056;-59
2021/12/31 22:31:09;;;;;;;19.38;10.45;;;;;;;12.43;100.00;102163.31;10545474;28;20055;-60
2021/12/31 22:36:11;;;;;;;27.25;10.43;;;;;;;12.34;100.00;102175.09;10545614;28;20052;-59
2021/12/31 22:41:13;;;;;;;22.23;10.90;;;;;;;12.39;100.00;102164.34;10545072;28;20055;-59
2021/12/31 22:46:16;;;;;;;23.33;10.00;;;;;;;12.34;100.00;102166.34;10545673;28;20047;-59
2021/12/31 22:51:18;;;;;;;18.73;9.45;;;;;;;12.38;100.00;102160.03;10543725;28;20040;-59
2021/12/31 22:56:20;;;;;;;26.85;11.15;;;;;;;12.35;100.00;102155.75;10544645;28;20048;-59
2021/12/31 23:01:24;;;;;;;22.92;10.68;;;;;;;12.33;100.00;102164.66;10544705;28;20050;-61